sensor_id;sensor_type;location;lat;lon;timestamp;temperature;humidity
67131;HTU21D;54051;53.464;49.532;2023-07-31T00:00:35;19.95;71.32
67131;HTU21D;54051;53.464;49.532;2023-07-31T00:03:01;19.90;70.28
67131;HTU21D;54051;53.464;49.532;2023-07-31T00:05:27;19.87;70.87
67131;HTU21D;54051;53.464;49.532;2023-07-31T00:07:53;19.82;71.35
67131;HTU21D;54051;53.464;49.532;2023-07-31T00:10:20;19.74;72.10
67131;HTU21D;54051;53.464;49.532;2023-07-31T00:12:47;19.66;74.28
67131;HTU21D;54051;53.464;49.532;2023-07-31T00:15:14;19.54;74.85
67131;HTU21D;54051;53.464;49.532;2023-07-31T00:17:40;19.41;76.05
67131;HTU21D;54051;53.464;49.532;2023-07-31T00:20:06;19.33;76.75
67131;HTU21D;54051;53.464;49.532;2023-07-31T00:22:32;19.23;76.34
67131;HTU21D;54051;53.464;49.532;2023-07-31T00:24:58;19.18;75.94
67131;HTU21D;54051;53.464;49.532;2023-07-31T00:27:25;19.10;76.51
67131;HTU21D;54051;53.464;49.532;2023-07-31T00:29:51;19.08;76.79
67131;HTU21D;54051;53.464;49.532;2023-07-31T00:32:17;19.02;76.92
67131;HTU21D;54051;53.464;49.532;2023-07-31T00:34:43;18.95;77.27
67131;HTU21D;54051;53.464;49.532;2023-07-31T00:37:09;18.92;77.69
67131;HTU21D;54051;53.464;49.532;2023-07-31T00:39:35;18.95;78.59
67131;HTU21D;54051;53.464;49.532;2023-07-31T00:42:02;18.98;78.37
67131;HTU21D;54051;53.464;49.532;2023-07-31T00:44:28;19.00;77.79
67131;HTU21D;54051;53.464;49.532;2023-07-31T00:46:56;18.96;77.75
67131;HTU21D;54051;53.464;49.532;2023-07-31T00:49:22;18.89;76.50
67131;HTU21D;54051;53.464;49.532;2023-07-31T00:51:49;18.91;76.93
67131;HTU21D;54051;53.464;49.532;2023-07-31T00:54:14;18.88;75.72
67131;HTU21D;54051;53.464;49.532;2023-07-31T00:56:41;18.88;75.86
67131;HTU21D;54051;53.464;49.532;2023-07-31T00:59:07;18.86;76.93
67131;HTU21D;54051;53.464;49.532;2023-07-31T01:01:33;18.86;75.83
67131;HTU21D;54051;53.464;49.532;2023-07-31T01:03:59;18.97;76.02
67131;HTU21D;54051;53.464;49.532;2023-07-31T01:06:37;18.96;76.36
67131;HTU21D;54051;53.464;49.532;2023-07-31T01:09:16;18.94;74.06
67131;HTU21D;54051;53.464;49.532;2023-07-31T01:11:57;19.03;74.58
67131;HTU21D;54051;53.464;49.532;2023-07-31T01:14:25;18.99;76.31
67131;HTU21D;54051;53.464;49.532;2023-07-31T01:16:51;19.02;75.83
67131;HTU21D;54051;53.464;49.532;2023-07-31T01:19:20;19.01;74.83
67131;HTU21D;54051;53.464;49.532;2023-07-31T01:21:59;18.94;74.74
67131;HTU21D;54051;53.464;49.532;2023-07-31T01:27:22;19.09;73.60
67131;HTU21D;54051;53.464;49.532;2023-07-31T01:30:03;19.14;73.89
67131;HTU21D;54051;53.464;49.532;2023-07-31T01:32:39;19.10;73.50
67131;HTU21D;54051;53.464;49.532;2023-07-31T01:35:06;19.13;73.64
67131;HTU21D;54051;53.464;49.532;2023-07-31T01:37:33;19.17;73.09
67131;HTU21D;54051;53.464;49.532;2023-07-31T01:39:59;19.16;73.62
67131;HTU21D;54051;53.464;49.532;2023-07-31T01:42:25;19.15;72.70
67131;HTU21D;54051;53.464;49.532;2023-07-31T01:44:51;19.14;72.07
67131;HTU21D;54051;53.464;49.532;2023-07-31T01:47:17;19.13;71.92
67131;HTU21D;54051;53.464;49.532;2023-07-31T01:49:43;19.18;72.16
67131;HTU21D;54051;53.464;49.532;2023-07-31T01:52:09;19.27;71.58
67131;HTU21D;54051;53.464;49.532;2023-07-31T01:54:35;19.32;70.11
67131;HTU21D;54051;53.464;49.532;2023-07-31T01:57:02;19.41;70.15
67131;HTU21D;54051;53.464;49.532;2023-07-31T01:59:28;19.46;70.16
67131;HTU21D;54051;53.464;49.532;2023-07-31T02:01:54;19.48;68.88
67131;HTU21D;54051;53.464;49.532;2023-07-31T02:04:20;19.43;70.04
67131;HTU21D;54051;53.464;49.532;2023-07-31T02:06:46;19.45;69.56
67131;HTU21D;54051;53.464;49.532;2023-07-31T02:09:12;19.44;68.75
67131;HTU21D;54051;53.464;49.532;2023-07-31T02:11:38;19.42;69.19
67131;HTU21D;54051;53.464;49.532;2023-07-31T02:14:04;19.53;68.30
67131;HTU21D;54051;53.464;49.532;2023-07-31T02:16:30;19.57;69.70
67131;HTU21D;54051;53.464;49.532;2023-07-31T02:18:56;19.59;69.10
67131;HTU21D;54051;53.464;49.532;2023-07-31T02:21:22;19.58;68.39
67131;HTU21D;54051;53.464;49.532;2023-07-31T02:23:48;19.66;69.30
67131;HTU21D;54051;53.464;49.532;2023-07-31T02:26:14;19.75;69.18
67131;HTU21D;54051;53.464;49.532;2023-07-31T02:28:39;19.61;68.91
67131;HTU21D;54051;53.464;49.532;2023-07-31T02:31:08;19.65;69.29
67131;HTU21D;54051;53.464;49.532;2023-07-31T02:33:34;19.67;68.92
67131;HTU21D;54051;53.464;49.532;2023-07-31T02:36:00;19.71;69.87
67131;HTU21D;54051;53.464;49.532;2023-07-31T02:38:26;19.73;70.20
67131;HTU21D;54051;53.464;49.532;2023-07-31T02:40:53;19.67;68.97
67131;HTU21D;54051;53.464;49.532;2023-07-31T02:43:19;19.53;69.45
67131;HTU21D;54051;53.464;49.532;2023-07-31T02:45:44;19.40;70.20
67131;HTU21D;54051;53.464;49.532;2023-07-31T02:48:10;19.40;71.63
67131;HTU21D;54051;53.464;49.532;2023-07-31T02:50:36;19.54;69.81
67131;HTU21D;54051;53.464;49.532;2023-07-31T02:53:02;19.61;69.97
67131;HTU21D;54051;53.464;49.532;2023-07-31T02:55:28;19.61;69.07
67131;HTU21D;54051;53.464;49.532;2023-07-31T02:57:54;19.60;68.96
67131;HTU21D;54051;53.464;49.532;2023-07-31T03:00:20;19.67;69.25
67131;HTU21D;54051;53.464;49.532;2023-07-31T03:02:46;19.84;69.07
67131;HTU21D;54051;53.464;49.532;2023-07-31T03:05:12;20.02;67.63
67131;HTU21D;54051;53.464;49.532;2023-07-31T03:07:38;20.12;67.42
67131;HTU21D;54051;53.464;49.532;2023-07-31T03:10:04;20.24;67.96
67131;HTU21D;54051;53.464;49.532;2023-07-31T03:12:31;20.30;66.97
67131;HTU21D;54051;53.464;49.532;2023-07-31T03:14:56;20.24;66.38
67131;HTU21D;54051;53.464;49.532;2023-07-31T03:17:22;20.33;66.89
67131;HTU21D;54051;53.464;49.532;2023-07-31T03:19:48;20.25;66.23
67131;HTU21D;54051;53.464;49.532;2023-07-31T03:22:17;19.97;67.25
67131;HTU21D;54051;53.464;49.532;2023-07-31T03:24:43;19.88;67.43
67131;HTU21D;54051;53.464;49.532;2023-07-31T03:27:09;19.72;67.90
67131;HTU21D;54051;53.464;49.532;2023-07-31T03:29:35;19.67;68.28
67131;HTU21D;54051;53.464;49.532;2023-07-31T03:32:01;19.61;67.51
67131;HTU21D;54051;53.464;49.532;2023-07-31T03:34:27;19.57;67.55
67131;HTU21D;54051;53.464;49.532;2023-07-31T03:36:53;19.59;68.10
67131;HTU21D;54051;53.464;49.532;2023-07-31T03:39:19;19.70;68.65
67131;HTU21D;54051;53.464;49.532;2023-07-31T03:41:45;19.77;68.31
67131;HTU21D;54051;53.464;49.532;2023-07-31T03:44:11;19.90;68.46
67131;HTU21D;54051;53.464;49.532;2023-07-31T03:46:37;19.89;67.75
67131;HTU21D;54051;53.464;49.532;2023-07-31T03:49:03;19.96;67.62
67131;HTU21D;54051;53.464;49.532;2023-07-31T03:51:29;20.06;67.07
67131;HTU21D;54051;53.464;49.532;2023-07-31T03:53:55;20.12;65.84
67131;HTU21D;54051;53.464;49.532;2023-07-31T03:56:21;20.09;66.76
67131;HTU21D;54051;53.464;49.532;2023-07-31T03:58:47;20.02;67.39
67131;HTU21D;54051;53.464;49.532;2023-07-31T04:01:13;20.04;66.90
67131;HTU21D;54051;53.464;49.532;2023-07-31T04:03:39;20.07;67.09
67131;HTU21D;54051;53.464;49.532;2023-07-31T04:06:05;20.13;67.71
67131;HTU21D;54051;53.464;49.532;2023-07-31T04:08:32;20.28;67.07
67131;HTU21D;54051;53.464;49.532;2023-07-31T04:10:58;20.34;65.91
67131;HTU21D;54051;53.464;49.532;2023-07-31T04:13:24;20.43;66.99
67131;HTU21D;54051;53.464;49.532;2023-07-31T04:15:53;20.46;65.03
67131;HTU21D;54051;53.464;49.532;2023-07-31T04:18:19;20.62;65.88
67131;HTU21D;54051;53.464;49.532;2023-07-31T04:20:45;20.63;65.59
67131;HTU21D;54051;53.464;49.532;2023-07-31T04:23:11;20.75;63.60
67131;HTU21D;54051;53.464;49.532;2023-07-31T04:25:37;20.71;65.23
67131;HTU21D;54051;53.464;49.532;2023-07-31T04:28:04;20.70;63.50
67131;HTU21D;54051;53.464;49.532;2023-07-31T04:30:30;20.66;63.57
67131;HTU21D;54051;53.464;49.532;2023-07-31T04:32:56;20.53;63.69
67131;HTU21D;54051;53.464;49.532;2023-07-31T04:35:22;20.43;64.01
67131;HTU21D;54051;53.464;49.532;2023-07-31T04:37:48;20.50;64.54
67131;HTU21D;54051;53.464;49.532;2023-07-31T04:40:17;20.60;64.59
67131;HTU21D;54051;53.464;49.532;2023-07-31T04:42:43;20.64;63.83
67131;HTU21D;54051;53.464;49.532;2023-07-31T04:45:09;20.75;63.08
67131;HTU21D;54051;53.464;49.532;2023-07-31T04:47:35;20.76;62.02
67131;HTU21D;54051;53.464;49.532;2023-07-31T04:50:01;20.72;62.85
67131;HTU21D;54051;53.464;49.532;2023-07-31T04:52:28;20.90;60.94
67131;HTU21D;54051;53.464;49.532;2023-07-31T04:54:54;20.88;60.98
67131;HTU21D;54051;53.464;49.532;2023-07-31T04:57:20;21.00;62.34
67131;HTU21D;54051;53.464;49.532;2023-07-31T04:59:46;21.36;61.96
67131;HTU21D;54051;53.464;49.532;2023-07-31T05:02:12;21.76;59.77
67131;HTU21D;54051;53.464;49.532;2023-07-31T05:04:39;21.89;58.64
67131;HTU21D;54051;53.464;49.532;2023-07-31T05:07:05;21.97;58.58
67131;HTU21D;54051;53.464;49.532;2023-07-31T05:09:31;21.97;57.43
67131;HTU21D;54051;53.464;49.532;2023-07-31T05:11:57;21.72;58.18
67131;HTU21D;54051;53.464;49.532;2023-07-31T05:14:23;21.65;58.90
67131;HTU21D;54051;53.464;49.532;2023-07-31T05:16:49;21.65;58.35
67131;HTU21D;54051;53.464;49.532;2023-07-31T05:19:15;22.06;57.95
67131;HTU21D;54051;53.464;49.532;2023-07-31T05:21:41;22.50;56.55
67131;HTU21D;54051;53.464;49.532;2023-07-31T05:24:07;22.40;56.22
67131;HTU21D;54051;53.464;49.532;2023-07-31T05:26:33;22.14;59.28
67131;HTU21D;54051;53.464;49.532;2023-07-31T05:28:59;22.11;59.16
67131;HTU21D;54051;53.464;49.532;2023-07-31T05:31:25;22.17;57.90
67131;HTU21D;54051;53.464;49.532;2023-07-31T05:33:50;21.90;59.37
67131;HTU21D;54051;53.464;49.532;2023-07-31T05:36:17;22.06;59.35
67131;HTU21D;54051;53.464;49.532;2023-07-31T05:38:43;21.68;59.62
67131;HTU21D;54051;53.464;49.532;2023-07-31T05:41:12;21.19;61.63
67131;HTU21D;54051;53.464;49.532;2023-07-31T05:43:38;20.91;64.29
67131;HTU21D;54051;53.464;49.532;2023-07-31T05:46:04;20.99;65.04
67131;HTU21D;54051;53.464;49.532;2023-07-31T05:48:32;21.02;64.75
67131;HTU21D;54051;53.464;49.532;2023-07-31T05:51:00;21.08;65.56
67131;HTU21D;54051;53.464;49.532;2023-07-31T05:53:26;21.11;63.87
67131;HTU21D;54051;53.464;49.532;2023-07-31T05:55:52;21.22;63.52
67131;HTU21D;54051;53.464;49.532;2023-07-31T05:58:17;21.28;63.80
67131;HTU21D;54051;53.464;49.532;2023-07-31T06:00:43;21.40;62.31
67131;HTU21D;54051;53.464;49.532;2023-07-31T06:03:09;21.42;62.77
67131;HTU21D;54051;53.464;49.532;2023-07-31T06:05:35;21.48;61.79
67131;HTU21D;54051;53.464;49.532;2023-07-31T06:08:02;21.48;62.06
67131;HTU21D;54051;53.464;49.532;2023-07-31T06:10:28;21.47;61.52
67131;HTU21D;54051;53.464;49.532;2023-07-31T06:12:54;21.35;62.40
67131;HTU21D;54051;53.464;49.532;2023-07-31T06:15:20;21.36;61.55
67131;HTU21D;54051;53.464;49.532;2023-07-31T06:17:46;21.48;62.30
67131;HTU21D;54051;53.464;49.532;2023-07-31T06:20:12;21.55;61.92
67131;HTU21D;54051;53.464;49.532;2023-07-31T06:22:38;21.65;62.34
67131;HTU21D;54051;53.464;49.532;2023-07-31T06:25:04;21.66;62.08
67131;HTU21D;54051;53.464;49.532;2023-07-31T06:27:30;21.51;61.20
67131;HTU21D;54051;53.464;49.532;2023-07-31T06:29:56;21.21;62.39
67131;HTU21D;54051;53.464;49.532;2023-07-31T06:32:23;21.23;63.11
67131;HTU21D;54051;53.464;49.532;2023-07-31T06:34:49;21.27;61.44
67131;HTU21D;54051;53.464;49.532;2023-07-31T06:37:15;21.18;61.79
67131;HTU21D;54051;53.464;49.532;2023-07-31T06:39:42;21.25;61.73
67131;HTU21D;54051;53.464;49.532;2023-07-31T06:42:08;21.24;62.37
67131;HTU21D;54051;53.464;49.532;2023-07-31T06:44:34;21.29;61.54
67131;HTU21D;54051;53.464;49.532;2023-07-31T06:47:00;21.23;62.98
67131;HTU21D;54051;53.464;49.532;2023-07-31T06:49:26;21.17;61.88
67131;HTU21D;54051;53.464;49.532;2023-07-31T06:51:52;21.33;62.41
67131;HTU21D;54051;53.464;49.532;2023-07-31T06:54:18;21.55;60.81
67131;HTU21D;54051;53.464;49.532;2023-07-31T06:56:44;21.63;60.68
67131;HTU21D;54051;53.464;49.532;2023-07-31T06:59:10;21.57;59.51
67131;HTU21D;54051;53.464;49.532;2023-07-31T07:01:36;21.57;59.32
67131;HTU21D;54051;53.464;49.532;2023-07-31T07:04:02;21.66;60.23
67131;HTU21D;54051;53.464;49.532;2023-07-31T07:06:28;21.75;61.15
67131;HTU21D;54051;53.464;49.532;2023-07-31T07:08:54;21.81;60.17
67131;HTU21D;54051;53.464;49.532;2023-07-31T07:11:20;21.87;59.79
67131;HTU21D;54051;53.464;49.532;2023-07-31T07:13:46;21.97;60.34
67131;HTU21D;54051;53.464;49.532;2023-07-31T07:16:12;22.02;60.21
67131;HTU21D;54051;53.464;49.532;2023-07-31T07:18:38;21.88;61.41
67131;HTU21D;54051;53.464;49.532;2023-07-31T07:21:04;21.87;60.12
67131;HTU21D;54051;53.464;49.532;2023-07-31T07:23:30;21.83;60.35
67131;HTU21D;54051;53.464;49.532;2023-07-31T07:25:56;21.95;60.58
67131;HTU21D;54051;53.464;49.532;2023-07-31T07:28:21;21.82;60.88
67131;HTU21D;54051;53.464;49.532;2023-07-31T07:30:51;21.63;60.72
67131;HTU21D;54051;53.464;49.532;2023-07-31T07:33:19;21.14;62.89
67131;HTU21D;54051;53.464;49.532;2023-07-31T07:35:45;20.92;64.48
67131;HTU21D;54051;53.464;49.532;2023-07-31T07:38:11;20.93;63.98
67131;HTU21D;54051;53.464;49.532;2023-07-31T07:40:40;20.91;64.59
67131;HTU21D;54051;53.464;49.532;2023-07-31T07:43:06;20.87;65.74
67131;HTU21D;54051;53.464;49.532;2023-07-31T07:45:32;20.88;65.97
67131;HTU21D;54051;53.464;49.532;2023-07-31T07:47:58;21.02;65.22
67131;HTU21D;54051;53.464;49.532;2023-07-31T07:50:24;21.16;65.57
67131;HTU21D;54051;53.464;49.532;2023-07-31T07:52:50;21.27;64.38
67131;HTU21D;54051;53.464;49.532;2023-07-31T07:55:16;21.31;64.19
67131;HTU21D;54051;53.464;49.532;2023-07-31T07:57:42;21.25;63.90
67131;HTU21D;54051;53.464;49.532;2023-07-31T08:00:12;21.11;64.18
67131;HTU21D;54051;53.464;49.532;2023-07-31T08:02:38;21.20;65.59
67131;HTU21D;54051;53.464;49.532;2023-07-31T08:05:04;21.22;63.38
67131;HTU21D;54051;53.464;49.532;2023-07-31T08:07:30;21.30;63.97
67131;HTU21D;54051;53.464;49.532;2023-07-31T08:09:56;21.46;63.28
67131;HTU21D;54051;53.464;49.532;2023-07-31T08:12:22;21.59;62.62
67131;HTU21D;54051;53.464;49.532;2023-07-31T08:14:48;21.61;62.55
67131;HTU21D;54051;53.464;49.532;2023-07-31T08:17:14;21.54;64.56
67131;HTU21D;54051;53.464;49.532;2023-07-31T08:19:40;21.50;63.81
67131;HTU21D;54051;53.464;49.532;2023-07-31T08:22:06;21.70;63.70
67131;HTU21D;54051;53.464;49.532;2023-07-31T08:24:32;22.07;61.70
67131;HTU21D;54051;53.464;49.532;2023-07-31T08:26:58;22.66;61.55
67131;HTU21D;54051;53.464;49.532;2023-07-31T08:29:25;23.05;58.95
67131;HTU21D;54051;53.464;49.532;2023-07-31T08:31:51;22.95;58.51
67131;HTU21D;54051;53.464;49.532;2023-07-31T08:34:17;22.63;59.32
67131;HTU21D;54051;53.464;49.532;2023-07-31T08:36:43;22.62;59.40
67131;HTU21D;54051;53.464;49.532;2023-07-31T08:39:09;22.66;59.35
67131;HTU21D;54051;53.464;49.532;2023-07-31T08:41:39;22.84;59.02
67131;HTU21D;54051;53.464;49.532;2023-07-31T08:44:07;22.77;59.66
67131;HTU21D;54051;53.464;49.532;2023-07-31T08:46:33;22.60;60.12
67131;HTU21D;54051;53.464;49.532;2023-07-31T08:49:02;22.66;59.99
67131;HTU21D;54051;53.464;49.532;2023-07-31T08:51:29;22.80;59.32
67131;HTU21D;54051;53.464;49.532;2023-07-31T08:53:56;22.76;59.22
67131;HTU21D;54051;53.464;49.532;2023-07-31T08:56:23;22.83;59.55
67131;HTU21D;54051;53.464;49.532;2023-07-31T08:58:51;22.77;59.12
67131;HTU21D;54051;53.464;49.532;2023-07-31T09:01:18;22.75;59.18
67131;HTU21D;54051;53.464;49.532;2023-07-31T09:03:44;22.95;58.32
67131;HTU21D;54051;53.464;49.532;2023-07-31T09:06:11;23.32;57.54
67131;HTU21D;54051;53.464;49.532;2023-07-31T09:08:41;24.23;55.10
67131;HTU21D;54051;53.464;49.532;2023-07-31T09:11:07;24.68;52.38
67131;HTU21D;54051;53.464;49.532;2023-07-31T09:13:33;24.90;51.91
67131;HTU21D;54051;53.464;49.532;2023-07-31T09:15:59;24.90;51.48
67131;HTU21D;54051;53.464;49.532;2023-07-31T09:18:25;25.30;50.51
67131;HTU21D;54051;53.464;49.532;2023-07-31T09:21:04;26.18;48.11
67131;HTU21D;54051;53.464;49.532;2023-07-31T09:23:44;26.51;47.38
67131;HTU21D;54051;53.464;49.532;2023-07-31T09:26:10;26.71;45.45
67131;HTU21D;54051;53.464;49.532;2023-07-31T09:28:36;26.33;46.85
67131;HTU21D;54051;53.464;49.532;2023-07-31T09:31:02;26.45;47.08
67131;HTU21D;54051;53.464;49.532;2023-07-31T09:33:28;26.60;45.56
67131;HTU21D;54051;53.464;49.532;2023-07-31T09:35:54;26.35;45.73
67131;HTU21D;54051;53.464;49.532;2023-07-31T09:38:20;25.82;47.76
67131;HTU21D;54051;53.464;49.532;2023-07-31T09:40:47;25.80;48.48
67131;HTU21D;54051;53.464;49.532;2023-07-31T09:43:18;26.24;47.31
67131;HTU21D;54051;53.464;49.532;2023-07-31T09:45:45;26.51;46.70
67131;HTU21D;54051;53.464;49.532;2023-07-31T09:48:14;26.84;45.94
67131;HTU21D;54051;53.464;49.532;2023-07-31T09:50:44;27.13;45.64
67131;HTU21D;54051;53.464;49.532;2023-07-31T09:53:10;27.39;45.16
67131;HTU21D;54051;53.464;49.532;2023-07-31T09:55:37;27.47;44.93
67131;HTU21D;54051;53.464;49.532;2023-07-31T09:58:09;27.44;44.58
67131;HTU21D;54051;53.464;49.532;2023-07-31T10:00:36;26.99;46.51
67131;HTU21D;54051;53.464;49.532;2023-07-31T10:03:06;26.60;46.23
67131;HTU21D;54051;53.464;49.532;2023-07-31T10:05:45;26.01;48.69
67131;HTU21D;54051;53.464;49.532;2023-07-31T10:08:15;25.59;50.36
67131;HTU21D;54051;53.464;49.532;2023-07-31T10:10:43;25.29;50.80
67131;HTU21D;54051;53.464;49.532;2023-07-31T10:13:09;24.98;51.69
67131;HTU21D;54051;53.464;49.532;2023-07-31T10:15:36;24.71;52.26
67131;HTU21D;54051;53.464;49.532;2023-07-31T10:18:02;24.65;52.63
67131;HTU21D;54051;53.464;49.532;2023-07-31T10:20:28;24.77;52.85
67131;HTU21D;54051;53.464;49.532;2023-07-31T10:22:55;24.86;52.82
67131;HTU21D;54051;53.464;49.532;2023-07-31T10:25:22;24.90;52.38
67131;HTU21D;54051;53.464;49.532;2023-07-31T10:27:49;24.97;52.23
67131;HTU21D;54051;53.464;49.532;2023-07-31T10:30:17;25.02;52.90
67131;HTU21D;54051;53.464;49.532;2023-07-31T10:32:45;24.95;53.57
67131;HTU21D;54051;53.464;49.532;2023-07-31T10:35:12;24.98;50.11
67131;HTU21D;54051;53.464;49.532;2023-07-31T10:37:42;24.99;49.95
67131;HTU21D;54051;53.464;49.532;2023-07-31T10:40:16;25.05;48.71
67131;HTU21D;54051;53.464;49.532;2023-07-31T10:42:48;24.95;48.72
67131;HTU21D;54051;53.464;49.532;2023-07-31T10:45:24;24.88;48.60
67131;HTU21D;54051;53.464;49.532;2023-07-31T10:48:00;24.94;47.54
67131;HTU21D;54051;53.464;49.532;2023-07-31T10:50:28;24.79;47.18
67131;HTU21D;54051;53.464;49.532;2023-07-31T10:52:56;24.63;47.59
67131;HTU21D;54051;53.464;49.532;2023-07-31T10:57:56;24.72;47.83
67131;HTU21D;54051;53.464;49.532;2023-07-31T11:00:28;24.93;47.22
67131;HTU21D;54051;53.464;49.532;2023-07-31T11:03:04;25.03;46.59
67131;HTU21D;54051;53.464;49.532;2023-07-31T11:05:44;24.82;46.78
67131;HTU21D;54051;53.464;49.532;2023-07-31T11:08:15;24.57;47.63
67131;HTU21D;54051;53.464;49.532;2023-07-31T11:10:43;24.44;47.50
67131;HTU21D;54051;53.464;49.532;2023-07-31T11:13:10;24.43;48.24
67131;HTU21D;54051;53.464;49.532;2023-07-31T11:15:36;24.57;48.00
67131;HTU21D;54051;53.464;49.532;2023-07-31T11:18:02;24.73;47.63
67131;HTU21D;54051;53.464;49.532;2023-07-31T11:20:37;24.84;47.64
67131;HTU21D;54051;53.464;49.532;2023-07-31T11:23:08;24.86;47.79
67131;HTU21D;54051;53.464;49.532;2023-07-31T11:25:36;24.77;48.13
67131;HTU21D;54051;53.464;49.532;2023-07-31T11:28:07;24.94;48.32
67131;HTU21D;54051;53.464;49.532;2023-07-31T11:30:34;24.89;47.92
67131;HTU21D;54051;53.464;49.532;2023-07-31T11:33:05;24.77;48.21
67131;HTU21D;54051;53.464;49.532;2023-07-31T11:35:33;24.85;48.15
67131;HTU21D;54051;53.464;49.532;2023-07-31T11:38:00;24.84;48.27
67131;HTU21D;54051;53.464;49.532;2023-07-31T11:40:26;24.87;48.29
67131;HTU21D;54051;53.464;49.532;2023-07-31T11:42:57;24.86;48.71
67131;HTU21D;54051;53.464;49.532;2023-07-31T11:45:26;24.95;48.24
67131;HTU21D;54051;53.464;49.532;2023-07-31T11:47:55;25.01;48.05
67131;HTU21D;54051;53.464;49.532;2023-07-31T11:50:23;25.01;47.77
67131;HTU21D;54051;53.464;49.532;2023-07-31T11:52:56;24.93;47.82
67131;HTU21D;54051;53.464;49.532;2023-07-31T11:55:23;24.94;48.16
67131;HTU21D;54051;53.464;49.532;2023-07-31T11:57:50;24.90;48.39
67131;HTU21D;54051;53.464;49.532;2023-07-31T12:00:17;24.75;49.10
67131;HTU21D;54051;53.464;49.532;2023-07-31T12:02:43;24.69;49.43
67131;HTU21D;54051;53.464;49.532;2023-07-31T12:05:11;24.55;49.69
67131;HTU21D;54051;53.464;49.532;2023-07-31T12:07:52;24.55;49.93
67131;HTU21D;54051;53.464;49.532;2023-07-31T12:10:25;24.61;49.89
67131;HTU21D;54051;53.464;49.532;2023-07-31T12:13:12;24.63;49.86
67131;HTU21D;54051;53.464;49.532;2023-07-31T12:15:46;24.66;49.75
67131;HTU21D;54051;53.464;49.532;2023-07-31T12:18:16;24.64;49.85
67131;HTU21D;54051;53.464;49.532;2023-07-31T12:20:49;24.78;49.38
67131;HTU21D;54051;53.464;49.532;2023-07-31T12:23:16;24.86;49.66
67131;HTU21D;54051;53.464;49.532;2023-07-31T12:25:42;24.89;49.24
67131;HTU21D;54051;53.464;49.532;2023-07-31T12:28:08;24.92;49.59
67131;HTU21D;54051;53.464;49.532;2023-07-31T12:30:38;24.77;49.98
67131;HTU21D;54051;53.464;49.532;2023-07-31T12:33:15;24.56;50.78
67131;HTU21D;54051;53.464;49.532;2023-07-31T12:35:44;24.17;52.01
67131;HTU21D;54051;53.464;49.532;2023-07-31T12:38:11;24.14;52.40
67131;HTU21D;54051;53.464;49.532;2023-07-31T12:40:38;24.15;52.17
67131;HTU21D;54051;53.464;49.532;2023-07-31T12:43:09;24.24;52.14
67131;HTU21D;54051;53.464;49.532;2023-07-31T12:45:35;24.46;51.37
67131;HTU21D;54051;53.464;49.532;2023-07-31T12:48:01;24.65;51.17
67131;HTU21D;54051;53.464;49.532;2023-07-31T12:50:27;24.70;50.85
67131;HTU21D;54051;53.464;49.532;2023-07-31T12:52:54;24.72;50.75
67131;HTU21D;54051;53.464;49.532;2023-07-31T12:55:21;24.91;50.18
67131;HTU21D;54051;53.464;49.532;2023-07-31T12:57:47;25.17;49.46
67131;HTU21D;54051;53.464;49.532;2023-07-31T13:00:13;25.27;48.88
67131;HTU21D;54051;53.464;49.532;2023-07-31T13:02:40;25.64;48.12
67131;HTU21D;54051;53.464;49.532;2023-07-31T13:05:06;25.83;47.70
67131;HTU21D;54051;53.464;49.532;2023-07-31T13:07:32;25.97;47.12
67131;HTU21D;54051;53.464;49.532;2023-07-31T13:09:58;26.21;46.96
67131;HTU21D;54051;53.464;49.532;2023-07-31T13:12:24;25.99;47.44
67131;HTU21D;54051;53.464;49.532;2023-07-31T13:14:50;25.69;48.38
67131;HTU21D;54051;53.464;49.532;2023-07-31T13:17:18;25.19;49.46
67131;HTU21D;54051;53.464;49.532;2023-07-31T13:19:44;24.72;51.05
67131;HTU21D;54051;53.464;49.532;2023-07-31T13:22:10;24.61;51.39
67131;HTU21D;54051;53.464;49.532;2023-07-31T13:24:36;24.57;51.57
67131;HTU21D;54051;53.464;49.532;2023-07-31T13:27:02;24.70;51.68
67131;HTU21D;54051;53.464;49.532;2023-07-31T13:29:28;24.72;50.78
67131;HTU21D;54051;53.464;49.532;2023-07-31T13:31:55;24.80;50.50
67131;HTU21D;54051;53.464;49.532;2023-07-31T13:34:21;25.05;49.41
67131;HTU21D;54051;53.464;49.532;2023-07-31T13:36:47;24.93;49.31
67131;HTU21D;54051;53.464;49.532;2023-07-31T13:39:13;24.79;51.79
67131;HTU21D;54051;53.464;49.532;2023-07-31T13:41:40;24.66;52.08
67131;HTU21D;54051;53.464;49.532;2023-07-31T13:44:05;24.30;52.04
67131;HTU21D;54051;53.464;49.532;2023-07-31T13:46:31;24.12;54.32
67131;HTU21D;54051;53.464;49.532;2023-07-31T13:49:01;23.55;55.76
67131;HTU21D;54051;53.464;49.532;2023-07-31T13:51:27;23.36;56.91
67131;HTU21D;54051;53.464;49.532;2023-07-31T13:53:54;23.24;56.90
67131;HTU21D;54051;53.464;49.532;2023-07-31T13:56:20;23.29;57.45
67131;HTU21D;54051;53.464;49.532;2023-07-31T13:58:45;23.31;57.29
67131;HTU21D;54051;53.464;49.532;2023-07-31T14:01:11;23.26;57.42
67131;HTU21D;54051;53.464;49.532;2023-07-31T14:03:37;23.24;56.90
67131;HTU21D;54051;53.464;49.532;2023-07-31T14:06:03;23.17;56.99
67131;HTU21D;54051;53.464;49.532;2023-07-31T14:08:29;23.23;56.48
67131;HTU21D;54051;53.464;49.532;2023-07-31T14:10:55;23.18;57.26
67131;HTU21D;54051;53.464;49.532;2023-07-31T14:13:22;23.10;57.93
67131;HTU21D;54051;53.464;49.532;2023-07-31T14:15:48;23.01;57.84
67131;HTU21D;54051;53.464;49.532;2023-07-31T14:18:14;22.97;57.93
67131;HTU21D;54051;53.464;49.532;2023-07-31T14:20:40;22.85;57.56
67131;HTU21D;54051;53.464;49.532;2023-07-31T14:23:06;22.80;57.75
67131;HTU21D;54051;53.464;49.532;2023-07-31T14:25:32;22.91;57.66
67131;HTU21D;54051;53.464;49.532;2023-07-31T14:27:58;22.96;57.58
67131;HTU21D;54051;53.464;49.532;2023-07-31T14:30:24;22.98;56.83
67131;HTU21D;54051;53.464;49.532;2023-07-31T14:32:50;22.96;56.99
67131;HTU21D;54051;53.464;49.532;2023-07-31T14:35:16;23.06;57.00
67131;HTU21D;54051;53.464;49.532;2023-07-31T14:37:44;23.26;56.27
67131;HTU21D;54051;53.464;49.532;2023-07-31T14:40:11;23.44;55.94
67131;HTU21D;54051;53.464;49.532;2023-07-31T14:42:39;23.51;55.44
67131;HTU21D;54051;53.464;49.532;2023-07-31T14:45:07;23.49;55.39
67131;HTU21D;54051;53.464;49.532;2023-07-31T14:47:33;23.44;55.77
67131;HTU21D;54051;53.464;49.532;2023-07-31T14:50:00;23.39;56.02
67131;HTU21D;54051;53.464;49.532;2023-07-31T14:52:25;23.32;56.36
67131;HTU21D;54051;53.464;49.532;2023-07-31T14:54:52;23.28;56.30
67131;HTU21D;54051;53.464;49.532;2023-07-31T14:57:18;23.25;56.30
67131;HTU21D;54051;53.464;49.532;2023-07-31T14:59:45;23.29;56.68
67131;HTU21D;54051;53.464;49.532;2023-07-31T15:02:14;23.39;56.51
67131;HTU21D;54051;53.464;49.532;2023-07-31T15:04:41;23.43;56.14
67131;HTU21D;54051;53.464;49.532;2023-07-31T15:07:07;23.39;56.19